Home > Products > Valid Products > MTR

000
SAUS46 KMFR 011800
MTRMHS
METAR KMHS 011756Z AUTO 00000KT 10SM CLR 26/08 A2998 RMK AO2 SLP133
T02560078 10256 20078 58005





000
SAUS46 KMFR 011757
MTRSXT
METAR KSXT 011756Z AUTO VRB04KT 10SM CLR 16/10 A3000 RMK AO2 SLP129
60000 T01560100 10156 20083 53001 $





000
SAUS46 KMFR 011657
MTRSXT
METAR KSXT 011656Z AUTO 17007KT 130V220 10SM CLR 14/10 A3000 RMK AO2
RAE00 SLP129 P0000 T01440100 $





000
SAUS46 KMFR 011657
MTRSXT
METAR KSXT 011656Z AUTO 17007KT 130V220 10SM CLR 14/10 A3000 RMK AO2
RAE00 SLP129 P0000 T01440100 $





000
SAUS46 KMFR 011609
MTRSXT
SPECI KSXT 011608Z AUTO 15004KT 10SM FEW001 13/10 A2999 RMK AO2
RAE00 P0000 T01280100 $





000
SAUS46 KMFR 011609
MTRSXT
SPECI KSXT 011608Z AUTO 15004KT 10SM FEW001 13/10 A2999 RMK AO2
RAE00 P0000 T01280100 $





000
SAUS46 KMFR 011602
MTRSXT
SPECI KSXT 011601Z AUTO 16004KT 1 1/2SM BR FEW001 11/09 A3000 RMK
AO2 RAE00 P0000 T01110094 $





000
SAUS46 KMFR 011557
MTRSXT
METAR KSXT 011556Z AUTO VRB03KT 1/4SM -RA FG VV001 11/09 A3000 RMK
AO2 RAB50 SLP134 P0000 T01060094 $





000
SAUS46 KMFR 011551
MTRSXT
SPECI KSXT 011550Z AUTO 00000KT 1/4SM -RA FG VV001 10/09 A3000 RMK
AO2 RAB50 P0000 $





000
SAUS46 KMFR 011457
MTRSXT
METAR KSXT 011456Z AUTO 00000KT 10SM FEW001 11/10 A3000 RMK AO2
RAE43 SLP132 P0000 60000 T01060100 51003





000
SAUS46 KMFR 011457
MTRSXT
METAR KSXT 011456Z AUTO 00000KT 10SM FEW001 11/10 A3000 RMK AO2
RAE43 SLP132 P0000 60000 T01060100 51003





000
SAUS46 KMFR 011455
MTRSXT
SPECI KSXT 011454Z AUTO 00000KT 10SM SCT001 11/10 A3000 RMK AO2
RAE43 P0000





000
SAUS46 KMFR 011455
MTRSXT
SPECI KSXT 011454Z AUTO 00000KT 10SM SCT001 11/10 A3000 RMK AO2
RAE43 P0000





000
SAUS46 KMFR 011448
MTRSXT
SPECI KSXT 011447Z AUTO 00000KT 1 3/4SM BR SCT001 11/09 A3000 RMK
AO2 RAE43 P0000 T01060094





000
SAUS46 KMFR 011358
MTRSXT
METAR KSXT 011356Z AUTO 35008KT 1/4SM -RA FG VV001 08/08 A2999 RMK
AO2 RAB36 SLP131 P0000 T00830083





000
SAUS46 KMFR 011337
MTRSXT
SPECI KSXT 011336Z AUTO 35005KT 1/4SM -RA FG VV001 09/08 A2999 RMK
AO2 RAB36 P0000 T00890083





000
SAUS46 KMFR 011333
MTRSXT
SPECI KSXT 011332Z AUTO 00000KT 1SM BR VV002 09/09 A2999 RMK AO2
T00940089





000
SAUS46 KMFR 011257
MTRSXT
METAR KSXT 011256Z AUTO 14005KT 10SM CLR 12/09 A2999 RMK AO2 SLP118
T01170089





000
SAUS46 KMFR 011257
MTRSXT
METAR KSXT 011256Z AUTO 14005KT 10SM CLR 12/09 A2999 RMK AO2 SLP118
T01170089





000
SAUS46 KMFR 011200
MTRMHS
METAR KMHS 011156Z AUTO 06003KT 10SM CLR 09/04 A3000 RMK AO2 SLP153
T00940044 10189 20094 50000





000
SAUS46 KMFR 011200
MTRMHS
METAR KMHS 011156Z AUTO 06003KT 10SM CLR 09/04 A3000 RMK AO2 SLP153
T00940044 10189 20094 50000





000
SAUS46 KMFR 011157
MTRSXT
METAR KSXT 011156Z AUTO 18004KT 10SM CLR 12/09 A3000 RMK AO2 RAE03
SLP120 P0000 60000 T01170094 10139 20106 57006





000
SAUS46 KMFR 011157
MTRSXT
METAR KSXT 011156Z AUTO 18004KT 10SM CLR 12/09 A3000 RMK AO2 RAE03
SLP120 P0000 60000 T01170094 10139 20106 57006





000
SAUS46 KMFR 011058
MTRSXT
METAR KSXT 011056Z AUTO 34003KT 10SM -RA CLR 11/09 A3001 RMK AO2
RAB52 SLP123 P0000 T01060089





000
SAUS46 KMFR 011058
MTRSXT
METAR KSXT 011056Z AUTO 34003KT 10SM -RA CLR 11/09 A3001 RMK AO2
RAB52 SLP123 P0000 T01060089





000
SAUS46 KMFR 011000
MTRMHS
METAR KMHS 010956Z AUTO 06003KT 10SM CLR 11/04 A3000 RMK AO2 SLP150
T01060044





000
SAUS46 KMFR 010957
MTRSXT
METAR KSXT 010956Z AUTO 00000KT 10SM CLR 13/09 A3001 RMK AO2 SLP122
T01280089





000
SAUS46 KMFR 010857
MTRSXT
METAR KSXT 010856Z AUTO 00000KT 10SM CLR 13/09 A3002 RMK AO2 RAE05
SLP127 P0000 60000 T01330089 58007





000
SAUS46 KMFR 010800
MTRMHS
METAR KMHS 010756Z AUTO 00000KT 10SM CLR 12/04 A3000 RMK AO2 SLP151
T01220044 402830089





000
SAUS46 KMFR 010800
MTRMHS
METAR KMHS 010756Z AUTO 00000KT 10SM CLR 12/04 A3000 RMK AO2 SLP151
T01220044 402830089





000
SAUS46 KMFR 010757
MTRSXT
METAR KSXT 010756Z AUTO 34004KT 10SM -RA CLR 11/09 A3003 RMK AO2
RAB54 SLP139 P0000 T01060089 402170083





000
SAUS46 KMFR 010657
MTRSXT
METAR KSXT 010656Z AUTO 01006KT 10SM CLR 12/09 A3004 RMK AO2 SLP140
T01220089





000
SAUS46 KMFR 010657
MTRSXT
METAR KSXT 010656Z AUTO 01006KT 10SM CLR 12/09 A3004 RMK AO2 SLP140
T01220089





000
SAUS46 KMFR 010557
MTRSXT
METAR KSXT 010556Z AUTO 34009KT 10SM CLR 12/09 A3004 RMK AO2 SLP145
T01170089 10206 20117 50003





000
SAUS46 KMFR 010557
MTRSXT
METAR KSXT 010556Z AUTO 34009KT 10SM CLR 12/09 A3004 RMK AO2 SLP145
T01170089 10206 20117 50003





000
SAUS46 KMFR 010457
MTRSXT
METAR KSXT 010456Z AUTO 34011KT 10SM CLR 12/09 A3005 RMK AO2 SLP148
T01220089





000
SAUS46 KMFR 010457
MTRSXT
METAR KSXT 010456Z AUTO 34011KT 10SM CLR 12/09 A3005 RMK AO2 SLP148
T01220089





000
SAUS46 KMFR 010357
MTRSXT
METAR KSXT 010356Z AUTO 35007KT 10SM CLR 13/09 A3004 RMK AO2 SLP148
T01330089





000
SAUS46 KMFR 010257
MTRSXT
METAR KSXT 010256Z AUTO 34006KT 10SM CLR 14/09 A3003 RMK AO2 SLP146
T01440094 56006





000
SAUS46 KMFR 010157
MTRSXT
METAR KSXT 010156Z AUTO VRB03KT 10SM CLR 17/10 A3003 RMK AO2 SLP142
T01720100





000
SAUS46 KMFR 010057
MTRSXT
METAR KSXT 010056Z AUTO 00000KT 10SM CLR 19/09 A3004 RMK AO2 SLP142
T01940094





000
SAUS46 KMFR 312357
MTRSXT
METAR KSXT 312356Z AUTO VRB04KT 10SM CLR 21/08 A3005 RMK AO2 SLP142
T02060078 10217 20150 56012





000
SAUS46 KMFR 312357
MTRSXT
METAR KSXT 312356Z AUTO VRB04KT 10SM CLR 21/08 A3005 RMK AO2 SLP142
T02060078 10217 20150 56012





000
SAUS46 KMFR 312301
MTRMHS
METAR KMHS 312256Z AUTO VRB05KT 10SM CLR 28/06 A2997 RMK AO2 SLP139
T02780056





000
SAUS46 KMFR 312301
MTRMHS
METAR KMHS 312256Z AUTO VRB05KT 10SM CLR 28/06 A2997 RMK AO2 SLP139
T02780056





000
SAUS46 KMFR 312258
MTRSXT
METAR KSXT 312256Z AUTO VRB03KT 10SM CLR 21/08 A3006 RMK AO2 SLP144
T02110078





000
SAUS46 KMFR 312258
MTRSXT
METAR KSXT 312256Z AUTO VRB03KT 10SM CLR 21/08 A3006 RMK AO2 SLP144
T02110078





000
SAUS46 KMFR 312157
MTRSXT
METAR KSXT 312156Z AUTO VRB03KT 10SM CLR 21/08 A3008 RMK AO2 SLP151
T02060078





000
SAUS46 KMFR 312057
MTRSXT
METAR KSXT 312056Z AUTO VRB05KT 10SM CLR 18/09 A3009 RMK AO2 SLP161
T01830094 56006





000
SAUS46 KMFR 311957
MTRSXT
METAR KSXT 311956Z AUTO 34003KT 10SM CLR 17/10 A3010 RMK AO2 SLP166
T01670100





000
SAUS46 KMFR 311857
MTRSXT
METAR KSXT 311856Z AUTO 00000KT 10SM CLR 16/11 A3010 RMK AO2 SLP169
T01610111





000
SAUS46 KMFR 311757
MTRSXT
METAR KSXT 311756Z AUTO VRB03KT 10SM CLR 15/10 A3011 RMK AO2
RAB02E03 SLP173 P0000 60000 T01500100 10150 20083 56000





000
SAUS46 KMFR 311757
MTRSXT
METAR KSXT 311756Z AUTO VRB03KT 10SM CLR 15/10 A3011 RMK AO2
RAB02E03 SLP173 P0000 60000 T01500100 10150 20083 56000





000
SAUS46 KMFR 311657
MTRSXT
METAR KSXT 311656Z AUTO VRB03KT 10SM CLR 14/10 A3011 RMK AO2 SLP175
T01390100





000
SAUS46 KMFR 311657
MTRSXT
METAR KSXT 311656Z AUTO VRB03KT 10SM CLR 14/10 A3011 RMK AO2 SLP175
T01390100





000
SAUS46 KMFR 311557
MTRSXT
METAR KSXT 311556Z AUTO 00000KT 10SM CLR 12/09 A3011 RMK AO2 RAE03
SLP178 P0000 T01220094





000
SAUS46 KMFR 311457
MTRSXT
METAR KSXT 311456Z AUTO 12004KT 10SM -RA CLR 10/09 A3011 RMK AO2
RAB54 SLP181 P0000 60000 T01000089 53003





000
SAUS46 KMFR 311357
MTRSXT
METAR KSXT 311356Z AUTO 11005KT 10SM CLR 09/08 A3010 RMK AO2
RAB34E43 SLP180 P0000 T00890078





000
SAUS46 KMFR 311257
MTRSXT
METAR KSXT 311256Z AUTO 12005KT 10SM CLR 09/07 A3010 RMK AO2 RAE1157
SLP174 P0000 T00890072





000
SAUS46 KMFR 311157
MTRSXT
METAR KSXT 311156Z AUTO 09003KT 10SM -RA CLR 09/07 A3010 RMK AO2
RAB47 SLP175 P0000 60000 70013 T00940072 10100 20083 56008





000
SAUS46 KMFR 311157
MTRSXT
METAR KSXT 311156Z AUTO 09003KT 10SM -RA CLR 09/07 A3010 RMK AO2
RAB47 SLP175 P0000 60000 70013 T00940072 10100 20083 56008





000
SAUS46 KMFR 311057
MTRSXT
METAR KSXT 311056Z AUTO 11003KT 10SM CLR 09/08 A3011 RMK AO2
RAB18E23 SLP178 P0000 T00940078





000
SAUS46 KMFR 311057
MTRSXT
METAR KSXT 311056Z AUTO 11003KT 10SM CLR 09/08 A3011 RMK AO2
RAB18E23 SLP178 P0000 T00940078





000
SAUS46 KMFR 310957
MTRSXT
METAR KSXT 310956Z AUTO 03006KT 10SM CLR 09/08 A3012 RMK AO2 SLP185
T00890078





000
SAUS46 KMFR 310942
MTRSXT
SPECI KSXT 310941Z AUTO 02004KT 10SM SCT002 08/08 A3012 RMK AO2
T00830078





000
SAUS46 KMFR 310935
MTRSXT
SPECI KSXT 310934Z AUTO 02005KT 2 1/2SM BR SCT002 08/08 A3012 RMK
AO2 T00830083





000
SAUS46 KMFR 310932
MTRSXT
SPECI KSXT 310931Z AUTO 02005KT 1 1/4SM BR SCT002 09/08 A3012 RMK
AO2 T00890083





000
SAUS46 KMFR 310932
MTRSXT
SPECI KSXT 310931Z AUTO 02005KT 1 1/4SM BR SCT002 09/08 A3012 RMK
AO2 T00890083





000
SAUS46 KMFR 310917
MTRSXT
SPECI KSXT 310916Z AUTO 01007KT 1 3/4SM BR SCT002 09/08 A3013 RMK
AO2 T00890083





000
SAUS46 KMFR 310901
MTRSXT
SPECI KSXT 310900Z AUTO 01007KT 6SM BR SCT002 09/08 A3013 RMK AO2
T00890083





000
SAUS46 KMFR 310901
MTRSXT
SPECI KSXT 310900Z AUTO 01007KT 6SM BR SCT002 09/08 A3013 RMK AO2
T00890083





000
SAUS46 KMFR 310858
MTRSXT
METAR KSXT 310856Z AUTO 01007KT 2SM BR BKN002 09/08 A3013 RMK AO2
VIS 1/2V5 SLP188 T00890083 58002





000
SAUS46 KMFR 310858
MTRSXT
METAR KSXT 310856Z AUTO 01007KT 2SM BR BKN002 09/08 A3013 RMK AO2
VIS 1/2V5 SLP188 T00890083 58002





000
SAUS46 KMFR 310853
MTRSXT
SPECI KSXT 310852Z AUTO 02006KT 1 1/2SM BR BKN002 09/08 A3013 RMK
AO2 VIS 1/2V4





000
SAUS46 KMFR 310848
MTRSXT
SPECI KSXT 310847Z AUTO 01007KT 3/4SM BR VV002 09/08 A3013 RMK AO2
VIS 1/4V4 T00890083





000
SAUS46 KMFR 310838
MTRSXT
SPECI KSXT 310837Z AUTO 01008KT 1 1/4SM BR BKN002 09/08 A3013 RMK
AO2 T00890083





000
SAUS46 KMFR 310838
MTRSXT
SPECI KSXT 310837Z AUTO 01008KT 1 1/4SM BR BKN002 09/08 A3013 RMK
AO2 T00890083





000
SAUS46 KMFR 310833
MTRSXT
SPECI KSXT 310831Z AUTO 01008KT 1 3/4SM BR SCT003 09/08 A3013 RMK
AO2 VIS 3/4V5 T00890083





000
SAUS46 KMFR 310828
MTRSXT
SPECI KSXT 310827Z AUTO 36008KT 4SM BR SCT003 09/08 A3014 RMK AO2
T00890083





000
SAUS46 KMFR 310757
MTRSXT
METAR KSXT 310756Z AUTO 36007KT 10SM CLR 09/08 A3014 RMK AO2 SLP190
T00890083 401440089





000
SAUS46 KMFR 310657
MTRSXT
METAR KSXT 310656Z AUTO 01008KT 10SM CLR 09/08 A3014 RMK AO2 SLP191
T00890083





000
SAUS46 KMFR 310557
MTRSXT
METAR KSXT 310556Z AUTO 35007KT 10SM CLR 09/08 A3014 RMK AO2 SLP191
T00940083 10133 20089 50001





000
SAUS46 KMFR 310557
MTRSXT
METAR KSXT 310556Z AUTO 35007KT 10SM CLR 09/08 A3014 RMK AO2 SLP191
T00940083 10133 20089 50001





000
SAUS46 KMFR 310457
MTRSXT
METAR KSXT 310456Z AUTO 35007KT 10SM CLR 09/08 A3014 RMK AO2 SLP195
T00940083





000
SAUS46 KMFR 310457
MTRSXT
METAR KSXT 310456Z AUTO 35007KT 10SM CLR 09/08 A3014 RMK AO2 SLP195
T00940083





000
SAUS46 KMFR 310357
MTRSXT
METAR KSXT 310356Z AUTO 34006KT 10SM CLR 09/09 A3014 RMK AO2 SLP194
T00940089





000
SAUS46 KMFR 310300
MTRMHS
METAR KMHS 310256Z AUTO VRB03KT 10SM CLR 17/06 A3006 RMK AO2 SLP182
T01720061 53005





000
SAUS46 KMFR 310257
MTRSXT
METAR KSXT 310256Z AUTO 32006KT 10SM CLR 09/08 A3014 RMK AO2 SLP192
T00940083 58003





000
SAUS46 KMFR 310257
MTRSXT
METAR KSXT 310256Z AUTO 32006KT 10SM CLR 09/08 A3014 RMK AO2 SLP192
T00940083 58003





000
SAUS46 KMFR 310200
MTRMHS
METAR KMHS 310156Z AUTO VRB06KT 10SM CLR 19/07 A3005 RMK AO2 SLP179
T01940067





000
SAUS46 KMFR 310200
MTRMHS
METAR KMHS 310156Z AUTO VRB06KT 10SM CLR 19/07 A3005 RMK AO2 SLP179
T01940067





000
SAUS46 KMFR 310157
MTRSXT
METAR KSXT 310156Z AUTO 33004KT 10SM CLR 10/08 A3014 RMK AO2 SLP193
T01000083





000
SAUS46 KMFR 310157
MTRSXT
METAR KSXT 310156Z AUTO 33004KT 10SM CLR 10/08 A3014 RMK AO2 SLP193
T01000083





000
SAUS46 KMFR 310107
MTRSXT
SPECI KSXT 310106Z AUTO VRB03KT 10SM FEW020 SCT024 SCT029 12/08
A3014 RMK AO2 T01170078





000
SAUS46 KMFR 310100
MTRMHS
METAR KMHS 310056Z AUTO VRB05KT 10SM CLR 23/07 A3004 RMK AO2 SLP172
T02280072





000
SAUS46 KMFR 310100
MTRMHS
METAR KMHS 310056Z AUTO VRB05KT 10SM CLR 23/07 A3004 RMK AO2 SLP172
T02280072





000
SAUS46 KMFR 310057
MTRSXT
METAR KSXT 310056Z AUTO VRB03KT 10SM SCT020 BKN029 BKN045 13/09
A3014 RMK AO2 SLP189 T01280094





000
SAUS46 KMFR 310057
MTRSXT
METAR KSXT 310056Z AUTO VRB03KT 10SM SCT020 BKN029 BKN045 13/09
A3014 RMK AO2 SLP189 T01280094





000
SAUS46 KMFR 310052
MTRSXT
SPECI KSXT 310051Z AUTO 10SM BKN018 BKN024 OVC045 13/09 A3014 RMK
AO2





000
SAUS46 KMFR 310052
MTRSXT
SPECI KSXT 310051Z AUTO 10SM BKN018 BKN024 OVC045 13/09 A3014 RMK
AO2





000
SAUS46 KMFR 310040
MTRSXT
SPECI KSXT 310039Z AUTO VRB04KT 10SM SCT018 BKN044 12/09 A3014 RMK
AO2 T01220089





000
SAUS46 KMFR 310021
MTRSXT
SPECI KSXT 310020Z AUTO VRB05KT 10SM BKN018 BKN023 OVC044 13/09
A3014 RMK AO2 T01280094





000
SAUS46 KMFR 302357
MTRSXT
METAR KSXT 302356Z AUTO 00000KT 10SM FEW016 OVC044 13/10 A3014 RMK
AO2 SLP189 60009 T01280100 10144 20100 58001





000
SAUS46 KMFR 302307
MTRSXT
SPECI KSXT 302306Z AUTO 22005KT 10SM FEW015 SCT022 OVC037 12/10
A3015 RMK AO2 T01170100





000
SAUS46 KMFR 302257
MTRSXT
METAR KSXT 302256Z AUTO VRB03KT 10SM FEW013 BKN024 OVC037 11/10
A3015 RMK AO2 SLP193 T01110100





000
SAUS46 KMFR 302257
MTRSXT
METAR KSXT 302256Z AUTO VRB03KT 10SM FEW013 BKN024 OVC037 11/10
A3015 RMK AO2 SLP193 T01110100





000
SAUS46 KMFR 302157
MTRSXT
METAR KSXT 302156Z AUTO 22006KT 10SM OVC021 10/09 A3015 RMK AO2
RAE36 SLP196 P0000 T01000094





000
SAUS46 KMFR 302131
MTRSXT
SPECI KSXT 302130Z AUTO VRB06KT 10SM -RA FEW004 OVC017 10/09 A3015
RMK AO2 P0000 T01000094





000
SAUS46 KMFR 302131
MTRSXT
SPECI KSXT 302130Z AUTO VRB06KT 10SM -RA FEW004 OVC017 10/09 A3015
RMK AO2 P0000 T01000094





000
SAUS46 KMFR 302120
MTRSXT
SPECI KSXT 302119Z AUTO VRB04KT 2 1/2SM -RA BR SCT004 OVC015 10/10
A3015 RMK AO2 VIS 1 1/4V5 P0000 T01000100





000
SAUS46 KMFR 302113
MTRSXT
SPECI KSXT 302112Z AUTO 00000KT 5SM -RA BR SCT002 BKN011 OVC015
10/10 A3015 RMK AO2 P0000 T01000100





000
SAUS46 KMFR 302108
MTRSXT
SPECI KSXT 302107Z AUTO VRB03KT 3SM -RA BR BKN002 BKN009 OVC015
10/10 A3015 RMK AO2 P0000 T01000100





000
SAUS46 KMFR 302105
MTRSXT
SPECI KSXT 302104Z AUTO VRB04KT 1 1/4SM -RA BR BKN002 OVC013 10/10
A3015 RMK AO2 VIS 1/4V5 P0000 T01000100





000
SAUS46 KMFR 302105
MTRSXT
SPECI KSXT 302104Z AUTO VRB04KT 1 1/4SM -RA BR BKN002 OVC013 10/10
A3015 RMK AO2 VIS 1/4V5 P0000 T01000100





000
SAUS46 KMFR 302057
MTRSXT
METAR KSXT 302056Z AUTO VRB04KT 1/4SM -RA FG VV002 11/11 A3015 RMK
AO2 RAE22B52 SLP192 P0006 60009 T01060106 53008





000
SAUS46 KMFR 302057
MTRSXT
METAR KSXT 302056Z AUTO VRB04KT 1/4SM -RA FG VV002 11/11 A3015 RMK
AO2 RAE22B52 SLP192 P0006 60009 T01060106 53008





000
SAUS46 KMFR 302040
MTRSXT
SPECI KSXT 302039Z AUTO VRB03KT 1/4SM FG BKN004 BKN013 OVC022 11/11
A3014 RMK AO2 RAE22 P0006 T01110111





000
SAUS46 KMFR 302040
MTRSXT
SPECI KSXT 302039Z AUTO VRB03KT 1/4SM FG BKN004 BKN013 OVC022 11/11
A3014 RMK AO2 RAE22 P0006 T01110111





000
SAUS46 KMFR 302033
MTRSXT
SPECI KSXT 302031Z AUTO VRB06KT 1/2SM FG BKN004 BKN013 OVC022 11/11
A3014 RMK AO2 RAE22 P0006 T01110111





000
SAUS46 KMFR 302028
MTRSXT
SPECI KSXT 302027Z AUTO VRB05KT 3/4SM BR FEW002 BKN014 OVC021 11/11
A3014 RMK AO2 RAE22 P0006 T01110111





000
SAUS46 KMFR 302028
MTRSXT
SPECI KSXT 302027Z AUTO VRB05KT 3/4SM BR FEW002 BKN014 OVC021 11/11
A3014 RMK AO2 RAE22 P0006 T01110111





000
SAUS46 KMFR 302019
MTRSXT
SPECI KSXT 302017Z AUTO VRB05G14KT 1/2SM -RA FG BKN006 BKN014 OVC021
11/10 A3013 RMK AO2 P0006 T01060100





000
SAUS46 KMFR 302019
MTRSXT
SPECI KSXT 302017Z AUTO VRB05G14KT 1/2SM -RA FG BKN006 BKN014 OVC021
11/10 A3013 RMK AO2 P0006 T01060100





000
SAUS46 KMFR 302011
MTRSXT
SPECI KSXT 302010Z AUTO 25009G14KT 1/4SM -RA FG BKN004 OVC014 10/10
A3013 RMK AO2 P0005 T01000100





000
SAUS46 KMFR 301958
MTRSXT
METAR KSXT 301956Z AUTO M1/4SM RA FG VV001 11/11 A3013 RMK AO2 RAB21
SLP186 P0003 T01060106





000
SAUS46 KMFR 301953
MTRSXT
SPECI KSXT 301952Z AUTO VRB05KT M1/4SM -RA FG VV001 11/11 A3013 RMK
AO2 RAB21 P0002





000
SAUS46 KMFR 301953
MTRSXT
SPECI KSXT 301952Z AUTO VRB05KT M1/4SM -RA FG VV001 11/11 A3013 RMK
AO2 RAB21 P0002





000
SAUS46 KMFR 301924
MTRSXT
SPECI KSXT 301923Z AUTO 20007KT 1/4SM -RA FG VV002 11/11 A3012 RMK
AO2 RAB21 P0000 T01110111





000
SAUS46 KMFR 301924
MTRSXT
SPECI KSXT 301923Z AUTO 20007KT 1/4SM -RA FG VV002 11/11 A3012 RMK
AO2 RAB21 P0000 T01110111





000
SAUS46 KMFR 301914
MTRSXT
SPECI KSXT 301913Z AUTO 19005KT 1/2SM FG VV002 11/11 A3012 RMK AO2
T01110106





000
SAUS46 KMFR 301900
MTRMHS
METAR KMHS 301856Z AUTO 00000KT 10SM CLR 22/07 A3009 RMK AO2 SLP185
T02170067





000
SAUS46 KMFR 301857
MTRSXT
METAR KSXT 301856Z AUTO 18007KT M1/4SM FG VV001 11/11 A3012 RMK AO2
RAE09 SLP182 P0000 T01060106





000
SAUS46 KMFR 301800
MTRMHS
METAR KMHS 301756Z AUTO 00000KT 10SM CLR 19/06 A3009 RMK AO2 SLP186
T01940061 10200 20050 50002





000
SAUS46 KMFR 301800
MTRMHS
METAR KMHS 301756Z AUTO 00000KT 10SM CLR 19/06 A3009 RMK AO2 SLP186
T01940061 10200 20050 50002





000
SAUS46 KMFR 301757
MTRSXT
METAR KSXT 301756Z AUTO 19005KT M1/4SM -RA FG VV001 10/10 A3011 RMK
AO2 SLP180 P0001 60004 T01000100 10100 20089 51019





000
SAUS46 KMFR 301757
MTRSXT
METAR KSXT 301756Z AUTO 19005KT M1/4SM -RA FG VV001 10/10 A3011 RMK
AO2 SLP180 P0001 60004 T01000100 10100 20089 51019





000
SAUS46 KMFR 301700
MTRMHS
METAR KMHS 301656Z AUTO 00000KT 10SM CLR 17/07 A3010 RMK AO2 SLP187
T01670072





000
SAUS46 KMFR 301700
MTRMHS
METAR KMHS 301656Z AUTO 00000KT 10SM CLR 17/07 A3010 RMK AO2 SLP187
T01670072





000
SAUS46 KMFR 301657
MTRSXT
METAR KSXT 301656Z AUTO 19007KT M1/4SM -RA FG VV001 09/09 A3009 RMK
AO2 SLP172 P0002 T00940094





000
SAUS46 KMFR 301657
MTRSXT
METAR KSXT 301656Z AUTO 19007KT M1/4SM -RA FG VV001 09/09 A3009 RMK
AO2 SLP172 P0002 T00940094





000
SAUS46 KMFR 301644
MTRSXT
SPECI KSXT 301643Z AUTO 20006G14KT M1/4SM -RA FG VV001 09/09 A3008
RMK AO2 P0001 T00940094





000
SAUS46 KMFR 301600
MTRMHS
METAR KMHS 301556Z AUTO 00000KT 10SM CLR 12/07 A3009 RMK AO2 SLP190
T01220072





000
SAUS46 KMFR 301558
MTRSXT
METAR KSXT 301556Z AUTO 22010G16KT M1/4SM -RA FG VV002 09/09 A3007
RMK AO2 RAB15 SLP168 P0001 T00890089





000
SAUS46 KMFR 301558
MTRSXT
METAR KSXT 301556Z AUTO 22010G16KT M1/4SM -RA FG VV002 09/09 A3007
RMK AO2 RAB15 SLP168 P0001 T00890089





000
SAUS46 KMFR 301539
MTRSXT
SPECI KSXT 301538Z AUTO 21010G16KT 1/4SM -RA FG VV002 09/09 A3006
RMK AO2 RAB15 P0000 T00890089





000
SAUS46 KMFR 301533
MTRSXT
SPECI KSXT 301531Z AUTO VRB06G19KT 1/2SM -RA FG BKN002 OVC009 09/09
A3006 RMK AO2 RAB15 P0000 T00890089





000
SAUS46 KMFR 301533
MTRSXT
SPECI KSXT 301531Z AUTO VRB06G19KT 1/2SM -RA FG BKN002 OVC009 09/09
A3006 RMK AO2 RAB15 P0000 T00890089





000
SAUS46 KMFR 301457
MTRSXT
METAR KSXT 301456Z AUTO 21011G17KT 1/4SM FG BKN002 OVC015 09/09
A3005 RMK AO2 RAB05E23B29E41 SLP156 P0000 60000 T00890089 53009





000
SAUS46 KMFR 301437
MTRSXT
SPECI KSXT 301436Z AUTO 21012G17KT 1/4SM -RA FG BKN003 OVC011 09/09
A3004 RMK AO2 RAB05E23B29 P0000 T00890089





000
SAUS46 KMFR 301429
MTRSXT
SPECI KSXT 301428Z AUTO 22011G20KT 3/4SM BR BKN003 OVC011 09/09
A3004 RMK AO2 VIS M1/4V4 RAB05E23 P0000 T00890089





000
SAUS46 KMFR 301427
MTRSXT
SPECI KSXT 301426Z AUTO 21010G20KT 1 1/2SM BR BKN003 BKN007 OVC011
09/09 A3004 RMK AO2 VIS 1/2V5 RAB05E23 P0000 T00890089





000
SAUS46 KMFR 301357
MTRSXT
METAR KSXT 301356Z AUTO 21011KT 10SM BKN004 OVC010 09/08 A3003 RMK
AO2 SLP147 T00890083





000
SAUS46 KMFR 301338
MTRSXT
SPECI KSXT 301337Z AUTO 20012G20KT 10SM BKN004 BKN010 OVC016 09/08
A3002 RMK AO2 T00940083





000
SAUS46 KMFR 301338
MTRSXT
SPECI KSXT 301337Z AUTO 20012G20KT 10SM BKN004 BKN010 OVC016 09/08
A3002 RMK AO2 T00940083





000
SAUS46 KMFR 301329
MTRSXT
SPECI KSXT 301328Z AUTO 19011G19KT 10SM BKN005 BKN010 OVC016 09/08
A3003 RMK AO2 T00940083





000
SAUS46 KMFR 301257
MTRSXT
METAR KSXT 301256Z AUTO 19012KT 10SM SCT005 SCT010 OVC019 09/08
A3002 RMK AO2 SLP141 T00940083





000
SAUS46 KMFR 301252
MTRSXT
SPECI KSXT 301251Z AUTO 19013G17KT 10SM SCT006 SCT010 OVC021 09/08
A3002 RMK AO2





000
SAUS46 KMFR 301244
MTRSXT
SPECI KSXT 301243Z AUTO 20011G16KT 10SM BKN006 BKN012 OVC021 09/08
A3002 RMK AO2 CIG 004V007 T00940083





000
SAUS46 KMFR 301206
MTRSXT
SPECI KSXT 301205Z AUTO 19009KT 10SM FEW004 OVC014 09/09 A3002 RMK
AO2 T00890089





000
SAUS46 KMFR 301206
MTRSXT
SPECI KSXT 301205Z AUTO 19009KT 10SM FEW004 OVC014 09/09 A3002 RMK
AO2 T00890089





000
SAUS46 KMFR 301157
MTRSXT
METAR KSXT 301156Z AUTO 18009KT 10SM FEW004 OVC016 09/09 A3002 RMK
AO2 SLP139 60000 70001 T00940089 10106 20094 53002





000
SAUS46 KMFR 301157
MTRSXT
METAR KSXT 301156Z AUTO 18009KT 10SM FEW004 OVC016 09/09 A3002 RMK
AO2 SLP139 60000 70001 T00940089 10106 20094 53002





000
SAUS46 KMFR 301150
MTRSXT
SPECI KSXT 301148Z AUTO 18009KT 10SM SCT004 BKN015 OVC020 09/09
A3002 RMK AO2 T00940089





000
SAUS46 KMFR 301150
MTRSXT
SPECI KSXT 301148Z AUTO 18009KT 10SM SCT004 BKN015 OVC020 09/09
A3002 RMK AO2 T00940089





000
SAUS46 KMFR 301100
MTRMHS
METAR KMHS 301056Z AUTO 00000KT 10SM CLR 07/04 A3004 RMK AO2 SLP173
T00720039





000
SAUS46 KMFR 301057
MTRSXT
METAR KSXT 301056Z AUTO 18010KT 10SM BKN003 OVC016 09/09 A3001 RMK
AO2 SLP135 T00940094





000
SAUS46 KMFR 301037
MTRSXT
SPECI KSXT 301036Z AUTO 19012KT 4SM BR OVC002 09/09 A3001 RMK AO2
T00940094





000
SAUS46 KMFR 301035
MTRSXT
SPECI KSXT 301034Z AUTO 18012KT 1 1/2SM BR OVC002 09/09 A3001 RMK
AO2 T00940094





000
SAUS46 KMFR 301035
MTRSXT
SPECI KSXT 301034Z AUTO 18012KT 1 1/2SM BR OVC002 09/09 A3001 RMK
AO2 T00940094





000
SAUS46 KMFR 301030
MTRSXT
SPECI KSXT 301029Z AUTO 17011KT 1/2SM FG VV002 10/09 A3001 RMK AO2
T01000094





000
SAUS46 KMFR 300957
MTRSXT
METAR KSXT 300956Z AUTO 19012G18KT 1/4SM FG VV001 10/10 A3000 RMK
AO2 SLP130 T01000100





000
SAUS46 KMFR 300857
MTRSXT
METAR KSXT 300856Z AUTO 19010G18KT 1/4SM FG VV001 10/10 A3001 RMK
AO2 SLP136 60000 T01000100 53003





000
SAUS46 KMFR 300857
MTRSXT
METAR KSXT 300856Z AUTO 19010G18KT 1/4SM FG VV001 10/10 A3001 RMK
AO2 SLP136 60000 T01000100 53003





000
SAUS46 KMFR 300800
MTRMHS
METAR KMHS 300756Z AUTO 00000KT 10SM CLR 11/07 A3002 RMK AO2 SLP164
T01060072 402500106





000
SAUS46 KMFR 300800
MTRMHS
METAR KMHS 300756Z AUTO 00000KT 10SM CLR 11/07 A3002 RMK AO2 SLP164
T01060072 402500106





000
SAUS46 KMFR 300757
MTRSXT
METAR KSXT 300756Z AUTO 19012G18KT 1/4SM FG VV001 10/10 A3000 RMK
AO2 RAE14 SLP133 P0000 T01000100 401830083





000
SAUS46 KMFR 300757
MTRSXT
METAR KSXT 300756Z AUTO 19012G18KT 1/4SM FG VV001 10/10 A3000 RMK
AO2 RAE14 SLP133 P0000 T01000100 401830083





000
SAUS46 KMFR 300748
MTRSXT
SPECI KSXT 300747Z AUTO 18011G21KT 1/4SM FG VV001 10/10 A3000 RMK
AO2 RAE14 P0000 T01000100





000
SAUS46 KMFR 300748
MTRSXT
SPECI KSXT 300747Z AUTO 18011G21KT 1/4SM FG VV001 10/10 A3000 RMK
AO2 RAE14 P0000 T01000100





000
SAUS46 KMFR 300726
MTRSXT
SPECI KSXT 300725Z AUTO 19011G19KT 1/4SM FG VV002 10/10 A3000 RMK
AO2 RAE14 P0000 T01000100





000
SAUS46 KMFR 300719
MTRSXT
SPECI KSXT 300718Z AUTO 19012G22KT 1/2SM FG VV002 10/10 A3000 RMK
AO2 RAE14 P0000 T01000100





000
SAUS46 KMFR 300719
MTRSXT
SPECI KSXT 300718Z AUTO 19012G22KT 1/2SM FG VV002 10/10 A3000 RMK
AO2 RAE14 P0000 T01000100





000
SAUS46 KMFR 300712
MTRSXT
SPECI KSXT 300711Z AUTO 19013G22KT 1/4SM -RA FG VV002 10/10 A3000
RMK AO2 P0000 T01000100





000
SAUS46 KMFR 300712
MTRSXT
SPECI KSXT 300711Z AUTO 19013G22KT 1/4SM -RA FG VV002 10/10 A3000
RMK AO2 P0000 T01000100





000
SAUS46 KMFR 300657
MTRSXT
METAR KSXT 300656Z AUTO 19010G20KT 3/4SM -RA BR VV002 10/10 A3000
RMK AO2 RAB54 SLP136 P0000 T01000100





000
SAUS46 KMFR 300657
MTRSXT
METAR KSXT 300656Z AUTO 19010G20KT 3/4SM -RA BR VV002 10/10 A3000
RMK AO2 RAB54 SLP136 P0000 T01000100





000
SAUS46 KMFR 300651
MTRSXT
SPECI KSXT 300650Z AUTO 18012G20KT 1 3/4SM BR OVC003 10/09 A3000 RMK
AO2





000
SAUS46 KMFR 300641
MTRSXT
SPECI KSXT 300640Z AUTO 18012G20KT 10SM BKN003 BKN011 OVC018 11/09
A3000 RMK AO2 T01060094





000
SAUS46 KMFR 300634
MTRSXT
SPECI KSXT 300633Z AUTO 18013G21KT 10SM BKN005 BKN012 OVC018 11/09
A3000 RMK AO2 CIG 003V007 T01060094





000
SAUS46 KMFR 300634
MTRSXT
SPECI KSXT 300633Z AUTO 18013G21KT 10SM BKN005 BKN012 OVC018 11/09
A3000 RMK AO2 CIG 003V007 T01060094





000
SAUS46 KMFR 300625
MTRSXT
SPECI KSXT 300624Z AUTO 19012G21KT 10SM SCT008 BKN012 OVC017 11/09
A3000 RMK AO2 T01060094





000
SAUS46 KMFR 300625
MTRSXT
SPECI KSXT 300624Z AUTO 19012G21KT 10SM SCT008 BKN012 OVC017 11/09
A3000 RMK AO2 T01060094





000
SAUS46 KMFR 300600
MTRMHS
METAR KMHS 300556Z AUTO 00000KT 10SM CLR 14/09 A3000 RMK AO2 SLP155
T01390094 10217 20139 51005





000
SAUS46 KMFR 300600
MTRMHS
METAR KMHS 300556Z AUTO 00000KT 10SM CLR 14/09 A3000 RMK AO2 SLP155
T01390094 10217 20139 51005





000
SAUS46 KMFR 300557
MTRSXT
METAR KSXT 300556Z AUTO 20013G21KT 10SM BKN008 OVC017 11/09 A3000
RMK AO2 PK WND 22029/0531 CIG 005V012 SLP133 T01060094 10161 20106
53001





000
SAUS46 KMFR 300550
MTRSXT
SPECI KSXT 300549Z AUTO 20012G25KT 10SM BKN007 BKN012 OVC017 11/09
A3000 RMK AO2 PK WND 22029/0531 CIG 005V008 T01060089





000
SAUS46 KMFR 300543
MTRSXT
SPECI KSXT 300541Z AUTO 21016G25KT 10SM SCT009 BKN014 OVC026 11/09
A3000 RMK AO2 PK WND 22029/0531 T01110089





000
SAUS46 KMFR 300457
MTRSXT
METAR KSXT 300456Z AUTO 20015G24KT 10SM BKN023 OVC028 11/08 A3000
RMK AO2 SLP140 T01110083





000
SAUS46 KMFR 300443
MTRSXT
SPECI KSXT 300441Z AUTO 19013G23KT 10SM BKN028 OVC034 11/08 A3000
RMK AO2 T01110083





000
SAUS46 KMFR 300443
MTRSXT
SPECI KSXT 300441Z AUTO 19013G23KT 10SM BKN028 OVC034 11/08 A3000
RMK AO2 T01110083





000
SAUS46 KMFR 300357
MTRSXT
METAR KSXT 300356Z AUTO 19014G21KT 10SM BKN040 11/08 A2999 RMK AO2
SLP139 T01110078





000
SAUS46 KMFR 300300
MTRMHS
METAR KMHS 300256Z AUTO 00000KT 10SM CLR 18/10 A2999 RMK AO2 SLP151
T01780100 51003





000
SAUS46 KMFR 300300
MTRMHS
METAR KMHS 300256Z AUTO 00000KT 10SM CLR 18/10 A2999 RMK AO2 SLP151
T01780100 51003





000
SAUS46 KMFR 300257
MTRSXT
METAR KSXT 300256Z AUTO 19009G21KT 10SM FEW026 OVC043 13/07 A3000
RMK AO2 SLP141 T01280072 53000





000
SAUS46 KMFR 300257
MTRSXT
METAR KSXT 300256Z AUTO 19009G21KT 10SM FEW026 OVC043 13/07 A3000
RMK AO2 SLP141 T01280072 53000





000
SAUS46 KMFR 300200
MTRMHS
METAR KMHS 300156Z AUTO 00000KT 10SM CLR 19/10 A2998 RMK AO2 SLP149
T01890100





000
SAUS46 KMFR 300200
MTRMHS
METAR KMHS 300156Z AUTO 00000KT 10SM CLR 19/10 A2998 RMK AO2 SLP149
T01890100





000
SAUS46 KMFR 300157
MTRSXT
METAR KSXT 300156Z AUTO 22009G22KT 10SM BKN048 14/07 A3000 RMK AO2
PK WND 22026/0139 SLP136 T01390067





000
SAUS46 KMFR 300157
MTRSXT
METAR KSXT 300156Z AUTO 22009G22KT 10SM BKN048 14/07 A3000 RMK AO2
PK WND 22026/0139 SLP136 T01390067





000
SAUS46 KMFR 300100
MTRMHS
METAR KMHS 300056Z AUTO VRB03KT 10SM CLR 21/11 A2998 RMK AO2 SLP141
T02060111





000
SAUS46 KMFR 300057
MTRSXT
METAR KSXT 300056Z AUTO 22013G20KT 190V260 10SM BKN045 BKN075 15/07
A2999 RMK AO2 SLP130 T01500072





000
SAUS46 KMFR 300057
MTRSXT
METAR KSXT 300056Z AUTO 22013G20KT 190V260 10SM BKN045 BKN075 15/07
A2999 RMK AO2 SLP130 T01500072





000
SAUS46 KMFR 292357
MTRSXT
METAR KSXT 292356Z AUTO VRB05G24KT 10SM FEW035 SCT042 OVC065 16/07
A3000 RMK AO2 SLP128 60000 T01560072 10183 20133 50002





000
SAUS46 KMFR 292357
MTRSXT
METAR KSXT 292356Z AUTO VRB05G24KT 10SM FEW035 SCT042 OVC065 16/07
A3000 RMK AO2 SLP128 60000 T01560072 10183 20133 50002





000
SAUS46 KMFR 292300
MTRMHS
METAR KMHS 292256Z AUTO 11003KT 10SM FEW090 22/10 A2997 RMK AO2
SLP136 T02170100





000
SAUS46 KMFR 292257
MTRSXT
METAR KSXT 292256Z AUTO 20011G20KT 160V220 10SM SCT036 BKN050 17/07
A3000 RMK AO2 PK WND 21031/2212 SLP128 T01720072





000
SAUS46 KMFR 292257
MTRSXT
METAR KSXT 292256Z AUTO 20011G20KT 160V220 10SM SCT036 BKN050 17/07
A3000 RMK AO2 PK WND 21031/2212 SLP128 T01720072





000
SAUS46 KMFR 292200
MTRMHS
METAR KMHS 292156Z AUTO VRB04KT 10SM FEW060 FEW080 24/09 A2998 RMK
AO2 SLP134 T02390094





000
SAUS46 KMFR 292200
MTRMHS
METAR KMHS 292156Z AUTO VRB04KT 10SM FEW060 FEW080 24/09 A2998 RMK
AO2 SLP134 T02390094





000
SAUS46 KMFR 292157
MTRSXT
METAR KSXT 292156Z AUTO 20008G21KT 150V260 10SM SCT037 BKN050 18/07
A3000 RMK AO2 RAB15E24 SLP122 P0000 T01780072





000
SAUS46 KMFR 292100
MTRMHS
METAR KMHS 292056Z AUTO 13004KT 10SM SCT065 SCT080 22/10 A2998 RMK
AO2 SLP134 T02220100 56005





000
SAUS46 KMFR 292057
MTRSXT
METAR KSXT 292056Z AUTO 21011G23KT 170V250 10SM OVC042 16/07 A2999
RMK AO2 SLP120 60000 T01560067 53012





000
SAUS46 KMFR 292000
MTRMHS
METAR KMHS 291956Z AUTO 00000KT 10SM BKN060 21/09 A2998 RMK AO2
SLP136 T02110094





000
SAUS46 KMFR 291957
MTRSXT
METAR KSXT 291956Z AUTO 22012G21KT 10SM FEW028 14/07 A2998 RMK AO2
PK WND 22027/1940 SLP114 T01440067





000
SAUS46 KMFR 291857
MTRSXT
METAR KSXT 291856Z AUTO 20013G25KT 10SM BKN040 14/06 A2997 RMK AO2
PK WND 21030/1814 RAE17 SLP111 P0000 T01440061





    US Dept of Commerce
    National Oceanic and Atmospheric Administration
    National Weather Service
    1325 East West Highway
    Silver Spring, MD 20910
    Page Author: NWS Internet Services Team
Disclaimer
Information Quality
Credits
Glossary
Privacy Policy
Freedom of Information Act (FOIA)
About Us
Career Opportunities